Garryowen, MT (59031)

7:46 AM MDT on July 23, 2016 (GMT -0600)
Sheridan County | | Change Station
Active Advisory: Fire Weather Warning Active Notice: Record Report

Elev 3967 ft 44.76 °N, 106.97 °W | Updated 53 minutes ago

Clear
Clear
67 °F
Feels Like 67 °F
N
6
Wind Variable Wind from WNW

Today
High -- | Low -- °F
--% Chance of Precip.
Yesterday
High -- | Low -- °F
Precip. -- in
Pressure 29.93 in
Visibility 10.0 miles
Clouds Clear
Dew Point 42 °F
Humidity 40%
Rainfall 0.00 in
Snow Depth Not available.
5:43 AM 8:46 PM
Waning Gibbous, 85% visible
METAR KSHR 231253Z AUTO 30005KT 10SM CLR 19/06 A3006 RMK AO2 SLP135 T01940056
Pressure 29.93 in
Visibility 10.0 miles
Clouds Clear
Dew Point 42 °F
Humidity 40%
Rainfall 0.00 in
Snow Depth Not available.
5:43 AM 8:46 PM
Waning Gibbous, 85% visible
METAR KSHR 231253Z AUTO 30005KT 10SM CLR 19/06 A3006 RMK AO2 SLP135 T01940056

10-Day Weather Forecast

Almanac

Astronomy

Jul. 23, 2016 Rise Set
Actual Time
Civil Twilight
Nautical Twilight
Astronomical Twilight
Moon
Length of Visible Light
Length of Day
Tomorrow will be .
, % of the Moon is Illuminated

Today's Extremes

State Highs State Lows

Community

WunderPhotos

Upload Photos

1,926,818 photos uploaded!

WunderBlog® & News

Nearby

Air Quality

  Air Quality AQ Index Pollutant
Not available.

Snow Depth

Station Depth Elevation

Earthquake Activity

City Distance Mag. Time & Date
Minimum magnitude displayed is 2.5.

Coastal Water Temperatures

Place Temperature

Stations

Nearby Weather Stations

Station Location Temp. Windchill Dew Point Humidity Wind Precip. Elev Updated Type
                   

Watches & Warnings

Fire Weather Warning
Issued: 1:46 AM MDT Jul. 23, 2016 – National Weather Service

... Red flag warning in effect from noon today to 9 PM MDT this
evening...

The National Weather Service in Billings has issued a red flag
warning... which is in effect from noon today to 9 PM MDT this
evening.

* Impacts: low humidities and strong gusty winds will create
erratic fire behavior and possible new fire starts.

* Affected area:
   in south central Mt... fire weather zone 129.

* Counties affected:
   in south central Mt... Big Horn... Carbon... Yellowstone.

* Wind: northwest 15 to 25 mph with gusts up to 35 mph.

* Humidity: as low as 18 percent.

Precautionary/preparedness actions...

A red flag warning means that critical fire weather conditions are
either occurring now... or will shortly. A combination of strong
winds... low relative humidity... and warm temperatures can
contribute to extreme fire behavior.




Http://weather.Gov/Billings